sensor_id;sensor_type;location;lat;lon;timestamp;P1;P2;P0
71858;PMS5003;59713;50.866;4.324;2023-12-28T00:00:05;5;4;
71858;PMS5003;59713;50.866;4.324;2023-12-28T00:01:05;5;4;
71858;PMS5003;59713;50.866;4.324;2023-12-28T00:01:05;5;4;
71858;PMS5003;59713;50.866;4.324;2023-12-28T00:02:05;5;4;
71858;PMS5003;59713;50.866;4.324;2023-12-28T00:03:05;7;5;
71858;PMS5003;59713;50.866;4.324;2023-12-28T00:04:05;7;5;
71858;PMS5003;59713;50.866;4.324;2023-12-28T00:05:05;7;5;
71858;PMS5003;59713;50.866;4.324;2023-12-28T00:06:05;5;4;
71858;PMS5003;59713;50.866;4.324;2023-12-28T00:07:05;5;4;
71858;PMS5003;59713;50.866;4.324;2023-12-28T00:08:05;5;4;
71858;PMS5003;59713;50.866;4.324;2023-12-28T00:09:05;5;5;
71858;PMS5003;59713;50.866;4.324;2023-12-28T00:10:05;5;5;
71858;PMS5003;59713;50.866;4.324;2023-12-28T00:10:05;5;5;
71858;PMS5003;59713;50.866;4.324;2023-12-28T00:11:05;5;5;
71858;PMS5003;59713;50.866;4.324;2023-12-28T00:12:05;7;7;
71858;PMS5003;59713;50.866;4.324;2023-12-28T00:13:05;7;7;
71858;PMS5003;59713;50.866;4.324;2023-12-28T00:14:05;7;7;
71858;PMS5003;59713;50.866;4.324;2023-12-28T00:15:05;6;6;
71858;PMS5003;59713;50.866;4.324;2023-12-28T00:16:05;6;6;
71858;PMS5003;59713;50.866;4.324;2023-12-28T00:17:09;6;6;
71858;PMS5003;59713;50.866;4.324;2023-12-28T00:18:05;8;7;
71858;PMS5003;59713;50.866;4.324;2023-12-28T00:19:05;8;7;
71858;PMS5003;59713;50.866;4.324;2023-12-28T00:20:05;8;7;
71858;PMS5003;59713;50.866;4.324;2023-12-28T00:20:05;8;7;
71858;PMS5003;59713;50.866;4.324;2023-12-28T00:21:05;9;9;
71858;PMS5003;59713;50.866;4.324;2023-12-28T00:22:05;9;9;
71858;PMS5003;59713;50.866;4.324;2023-12-28T00:23:05;9;9;
71858;PMS5003;59713;50.866;4.324;2023-12-28T00:24:05;10;9;
71858;PMS5003;59713;50.866;4.324;2023-12-28T00:25:05;10;9;
71858;PMS5003;59713;50.866;4.324;2023-12-28T00:26:05;10;9;
71858;PMS5003;59713;50.866;4.324;2023-12-28T00:27:05;7;6;
71858;PMS5003;59713;50.866;4.324;2023-12-28T00:28:05;7;6;
71858;PMS5003;59713;50.866;4.324;2023-12-28T00:29:05;7;6;
71858;PMS5003;59713;50.866;4.324;2023-12-28T00:29:05;7;6;
71858;PMS5003;59713;50.866;4.324;2023-12-28T00:30:05;12;7;
71858;PMS5003;59713;50.866;4.324;2023-12-28T00:31:05;12;7;
71858;PMS5003;59713;50.866;4.324;2023-12-28T00:32:05;12;7;
71858;PMS5003;59713;50.866;4.324;2023-12-28T00:33:05;7;7;
71858;PMS5003;59713;50.866;4.324;2023-12-28T00:34:05;7;7;
71858;PMS5003;59713;50.866;4.324;2023-12-28T00:35:05;7;7;
71858;PMS5003;59713;50.866;4.324;2023-12-28T00:36:05;7;7;
71858;PMS5003;59713;50.866;4.324;2023-12-28T00:37:05;7;7;
71858;PMS5003;59713;50.866;4.324;2023-12-28T00:38:05;7;7;
71858;PMS5003;59713;50.866;4.324;2023-12-28T00:38:05;7;7;
71858;PMS5003;59713;50.866;4.324;2023-12-28T00:39:05;9;7;
71858;PMS5003;59713;50.866;4.324;2023-12-28T00:40:05;9;7;
71858;PMS5003;59713;50.866;4.324;2023-12-28T00:41:05;9;7;
71858;PMS5003;59713;50.866;4.324;2023-12-28T00:42:05;8;8;
71858;PMS5003;59713;50.866;4.324;2023-12-28T00:43:06;8;8;
71858;PMS5003;59713;50.866;4.324;2023-12-28T00:44:05;8;8;
71858;PMS5003;59713;50.866;4.324;2023-12-28T00:45:05;4;4;
71858;PMS5003;59713;50.866;4.324;2023-12-28T00:46:05;4;4;
71858;PMS5003;59713;50.866;4.324;2023-12-28T00:47:05;4;4;
71858;PMS5003;59713;50.866;4.324;2023-12-28T00:48:05;6;6;
71858;PMS5003;59713;50.866;4.324;2023-12-28T00:48:05;6;6;
71858;PMS5003;59713;50.866;4.324;2023-12-28T00:49:05;6;6;
71858;PMS5003;59713;50.866;4.324;2023-12-28T00:50:05;6;6;
71858;PMS5003;59713;50.866;4.324;2023-12-28T00:51:05;6;6;
71858;PMS5003;59713;50.866;4.324;2023-12-28T00:52:05;6;6;
71858;PMS5003;59713;50.866;4.324;2023-12-28T00:53:05;6;6;
71858;PMS5003;59713;50.866;4.324;2023-12-28T00:54:05;6;6;
71858;PMS5003;59713;50.866;4.324;2023-12-28T00:55:07;6;6;
71858;PMS5003;59713;50.866;4.324;2023-12-28T00:56:05;6;6;
71858;PMS5003;59713;50.866;4.324;2023-12-28T00:57:05;8;8;
71858;PMS5003;59713;50.866;4.324;2023-12-28T00:57:05;8;8;
71858;PMS5003;59713;50.866;4.324;2023-12-28T00:58:05;8;8;
71858;PMS5003;59713;50.866;4.324;2023-12-28T00:59:05;8;8;
71858;PMS5003;59713;50.866;4.324;2023-12-28T01:00:05;8;7;
71858;PMS5003;59713;50.866;4.324;2023-12-28T01:01:05;8;7;
71858;PMS5003;59713;50.866;4.324;2023-12-28T01:02:05;8;7;
71858;PMS5003;59713;50.866;4.324;2023-12-28T01:03:05;7;5;
71858;PMS5003;59713;50.866;4.324;2023-12-28T01:04:05;7;5;
71858;PMS5003;59713;50.866;4.324;2023-12-28T01:05:05;7;5;
71858;PMS5003;59713;50.866;4.324;2023-12-28T01:06:05;9;6;
71858;PMS5003;59713;50.866;4.324;2023-12-28T01:06:05;9;6;
71858;PMS5003;59713;50.866;4.324;2023-12-28T01:07:05;9;6;
71858;PMS5003;59713;50.866;4.324;2023-12-28T01:08:05;9;6;
71858;PMS5003;59713;50.866;4.324;2023-12-28T01:09:05;7;6;
71858;PMS5003;59713;50.866;4.324;2023-12-28T01:10:05;7;6;
71858;PMS5003;59713;50.866;4.324;2023-12-28T01:11:05;7;6;
71858;PMS5003;59713;50.866;4.324;2023-12-28T01:12:05;10;7;
71858;PMS5003;59713;50.866;4.324;2023-12-28T01:13:05;10;7;
71858;PMS5003;59713;50.866;4.324;2023-12-28T01:14:05;10;7;
71858;PMS5003;59713;50.866;4.324;2023-12-28T01:15:05;8;7;
71858;PMS5003;59713;50.866;4.324;2023-12-28T01:15:05;8;7;
71858;PMS5003;59713;50.866;4.324;2023-12-28T01:16:05;8;7;
71858;PMS5003;59713;50.866;4.324;2023-12-28T01:17:05;8;7;
71858;PMS5003;59713;50.866;4.324;2023-12-28T01:18:05;9;7;
71858;PMS5003;59713;50.866;4.324;2023-12-28T01:19:05;9;7;
71858;PMS5003;59713;50.866;4.324;2023-12-28T01:20:05;9;7;
71858;PMS5003;59713;50.866;4.324;2023-12-28T01:21:05;7;5;
71858;PMS5003;59713;50.866;4.324;2023-12-28T01:22:05;7;5;
71858;PMS5003;59713;50.866;4.324;2023-12-28T01:23:05;7;5;
71858;PMS5003;59713;50.866;4.324;2023-12-28T01:24:05;6;6;
71858;PMS5003;59713;50.866;4.324;2023-12-28T01:24:05;6;6;
71858;PMS5003;59713;50.866;4.324;2023-12-28T01:25:05;6;6;
71858;PMS5003;59713;50.866;4.324;2023-12-28T01:26:05;6;6;
71858;PMS5003;59713;50.866;4.324;2023-12-28T01:27:05;7;7;
71858;PMS5003;59713;50.866;4.324;2023-12-28T01:28:05;7;7;
71858;PMS5003;59713;50.866;4.324;2023-12-28T01:29:05;7;7;
71858;PMS5003;59713;50.866;4.324;2023-12-28T01:30:06;6;6;
71858;PMS5003;59713;50.866;4.324;2023-12-28T01:31:05;6;6;
71858;PMS5003;59713;50.866;4.324;2023-12-28T01:32:05;6;6;
71858;PMS5003;59713;50.866;4.324;2023-12-28T01:33:05;6;6;
71858;PMS5003;59713;50.866;4.324;2023-12-28T01:33:05;6;6;
71858;PMS5003;59713;50.866;4.324;2023-12-28T01:34:06;6;6;
71858;PMS5003;59713;50.866;4.324;2023-12-28T01:35:05;6;6;
71858;PMS5003;59713;50.866;4.324;2023-12-28T01:36:14;7;7;
71858;PMS5003;59713;50.866;4.324;2023-12-28T01:37:05;7;7;
71858;PMS5003;59713;50.866;4.324;2023-12-28T01:38:05;7;7;
71858;PMS5003;59713;50.866;4.324;2023-12-28T01:39:05;8;8;
71858;PMS5003;59713;50.866;4.324;2023-12-28T01:40:06;8;8;
71858;PMS5003;59713;50.866;4.324;2023-12-28T01:41:05;8;8;
71858;PMS5003;59713;50.866;4.324;2023-12-28T01:42:05;6;6;
71858;PMS5003;59713;50.866;4.324;2023-12-28T01:43:05;6;6;
71858;PMS5003;59713;50.866;4.324;2023-12-28T01:43:05;6;6;
71858;PMS5003;59713;50.866;4.324;2023-12-28T01:44:05;6;6;
71858;PMS5003;59713;50.866;4.324;2023-12-28T01:45:05;8;6;
71858;PMS5003;59713;50.866;4.324;2023-12-28T01:46:05;8;6;
71858;PMS5003;59713;50.866;4.324;2023-12-28T01:47:05;8;6;
71858;PMS5003;59713;50.866;4.324;2023-12-28T01:48:05;7;7;
71858;PMS5003;59713;50.866;4.324;2023-12-28T01:49:05;7;7;
71858;PMS5003;59713;50.866;4.324;2023-12-28T01:50:05;7;7;
71858;PMS5003;59713;50.866;4.324;2023-12-28T01:51:05;6;5;
71858;PMS5003;59713;50.866;4.324;2023-12-28T01:52:05;6;5;
71858;PMS5003;59713;50.866;4.324;2023-12-28T01:52:05;6;5;
71858;PMS5003;59713;50.866;4.324;2023-12-28T01:53:05;6;5;
71858;PMS5003;59713;50.866;4.324;2023-12-28T01:54:05;8;7;
71858;PMS5003;59713;50.866;4.324;2023-12-28T01:55:05;8;7;
71858;PMS5003;59713;50.866;4.324;2023-12-28T01:56:05;8;7;
71858;PMS5003;59713;50.866;4.324;2023-12-28T01:57:05;6;6;
71858;PMS5003;59713;50.866;4.324;2023-12-28T01:58:05;6;6;
71858;PMS5003;59713;50.866;4.324;2023-12-28T01:59:05;6;6;
71858;PMS5003;59713;50.866;4.324;2023-12-28T02:00:05;8;7;
71858;PMS5003;59713;50.866;4.324;2023-12-28T02:01:05;8;7;
71858;PMS5003;59713;50.866;4.324;2023-12-28T02:02:05;8;7;
71858;PMS5003;59713;50.866;4.324;2023-12-28T02:02:05;8;7;
71858;PMS5003;59713;50.866;4.324;2023-12-28T02:03:05;9;6;
71858;PMS5003;59713;50.866;4.324;2023-12-28T02:04:05;9;6;
71858;PMS5003;59713;50.866;4.324;2023-12-28T02:05:05;9;6;
71858;PMS5003;59713;50.866;4.324;2023-12-28T02:06:05;11;9;
71858;PMS5003;59713;50.866;4.324;2023-12-28T02:07:05;11;9;
71858;PMS5003;59713;50.866;4.324;2023-12-28T02:08:05;11;9;
71858;PMS5003;59713;50.866;4.324;2023-12-28T02:09:05;8;7;
71858;PMS5003;59713;50.866;4.324;2023-12-28T02:10:05;8;7;
71858;PMS5003;59713;50.866;4.324;2023-12-28T02:11:05;8;7;
71858;PMS5003;59713;50.866;4.324;2023-12-28T02:11:05;8;7;
71858;PMS5003;59713;50.866;4.324;2023-12-28T02:12:05;7;6;
71858;PMS5003;59713;50.866;4.324;2023-12-28T02:13:05;7;6;
71858;PMS5003;59713;50.866;4.324;2023-12-28T02:14:05;7;6;
71858;PMS5003;59713;50.866;4.324;2023-12-28T02:15:05;8;6;
71858;PMS5003;59713;50.866;4.324;2023-12-28T02:16:07;8;6;
71858;PMS5003;59713;50.866;4.324;2023-12-28T02:17:06;8;6;
71858;PMS5003;59713;50.866;4.324;2023-12-28T02:18:07;4;4;
71858;PMS5003;59713;50.866;4.324;2023-12-28T02:19:07;4;4;
71858;PMS5003;59713;50.866;4.324;2023-12-28T02:20:05;4;4;
71858;PMS5003;59713;50.866;4.324;2023-12-28T02:20:05;4;4;
71858;PMS5003;59713;50.866;4.324;2023-12-28T02:21:05;5;5;
71858;PMS5003;59713;50.866;4.324;2023-12-28T02:22:05;5;5;
71858;PMS5003;59713;50.866;4.324;2023-12-28T02:23:07;5;5;
71858;PMS5003;59713;50.866;4.324;2023-12-28T02:24:05;6;5;
71858;PMS5003;59713;50.866;4.324;2023-12-28T02:25:05;6;5;
71858;PMS5003;59713;50.866;4.324;2023-12-28T02:26:05;6;5;
71858;PMS5003;59713;50.866;4.324;2023-12-28T02:27:05;5;2;
71858;PMS5003;59713;50.866;4.324;2023-12-28T02:28:05;5;2;
71858;PMS5003;59713;50.866;4.324;2023-12-28T02:29:05;5;2;
71858;PMS5003;59713;50.866;4.324;2023-12-28T02:29:05;5;2;
71858;PMS5003;59713;50.866;4.324;2023-12-28T02:30:05;9;6;
71858;PMS5003;59713;50.866;4.324;2023-12-28T02:31:05;9;6;
71858;PMS5003;59713;50.866;4.324;2023-12-28T02:32:05;9;6;
71858;PMS5003;59713;50.866;4.324;2023-12-28T02:33:07;8;7;
71858;PMS5003;59713;50.866;4.324;2023-12-28T02:34:06;8;7;
71858;PMS5003;59713;50.866;4.324;2023-12-28T02:35:08;8;7;
71858;PMS5003;59713;50.866;4.324;2023-12-28T02:36:06;4;4;
71858;PMS5003;59713;50.866;4.324;2023-12-28T02:37:05;4;4;
71858;PMS5003;59713;50.866;4.324;2023-12-28T02:38:06;4;4;
71858;PMS5003;59713;50.866;4.324;2023-12-28T02:38:06;4;4;
71858;PMS5003;59713;50.866;4.324;2023-12-28T02:39:05;6;6;
71858;PMS5003;59713;50.866;4.324;2023-12-28T02:40:06;6;6;
71858;PMS5003;59713;50.866;4.324;2023-12-28T02:41:05;6;6;
71858;PMS5003;59713;50.866;4.324;2023-12-28T02:42:05;10;7;
71858;PMS5003;59713;50.866;4.324;2023-12-28T02:43:05;10;7;
71858;PMS5003;59713;50.866;4.324;2023-12-28T02:44:06;10;7;
71858;PMS5003;59713;50.866;4.324;2023-12-28T02:45:06;7;5;
71858;PMS5003;59713;50.866;4.324;2023-12-28T02:46:05;7;5;
71858;PMS5003;59713;50.866;4.324;2023-12-28T02:47:05;7;5;
71858;PMS5003;59713;50.866;4.324;2023-12-28T02:48:05;8;6;
71858;PMS5003;59713;50.866;4.324;2023-12-28T02:48:05;8;6;
71858;PMS5003;59713;50.866;4.324;2023-12-28T02:49:05;8;6;
71858;PMS5003;59713;50.866;4.324;2023-12-28T02:50:06;8;6;
71858;PMS5003;59713;50.866;4.324;2023-12-28T02:51:05;6;4;
71858;PMS5003;59713;50.866;4.324;2023-12-28T02:52:05;6;4;
71858;PMS5003;59713;50.866;4.324;2023-12-28T02:53:05;6;4;
71858;PMS5003;59713;50.866;4.324;2023-12-28T02:54:05;9;6;
71858;PMS5003;59713;50.866;4.324;2023-12-28T02:55:06;9;6;
71858;PMS5003;59713;50.866;4.324;2023-12-28T02:56:05;9;6;
71858;PMS5003;59713;50.866;4.324;2023-12-28T02:57:05;8;5;
71858;PMS5003;59713;50.866;4.324;2023-12-28T02:57:05;8;5;
71858;PMS5003;59713;50.866;4.324;2023-12-28T02:58:05;8;5;
71858;PMS5003;59713;50.866;4.324;2023-12-28T02:59:05;8;5;
71858;PMS5003;59713;50.866;4.324;2023-12-28T03:00:06;6;5;
71858;PMS5003;59713;50.866;4.324;2023-12-28T03:01:05;6;5;
71858;PMS5003;59713;50.866;4.324;2023-12-28T03:02:05;6;5;
71858;PMS5003;59713;50.866;4.324;2023-12-28T03:03:05;7;4;
71858;PMS5003;59713;50.866;4.324;2023-12-28T03:04:05;7;4;
71858;PMS5003;59713;50.866;4.324;2023-12-28T03:05:05;7;4;
71858;PMS5003;59713;50.866;4.324;2023-12-28T03:06:05;9;4;
71858;PMS5003;59713;50.866;4.324;2023-12-28T03:06:05;9;4;
71858;PMS5003;59713;50.866;4.324;2023-12-28T03:07:07;9;4;
71858;PMS5003;59713;50.866;4.324;2023-12-28T03:08:05;9;4;
71858;PMS5003;59713;50.866;4.324;2023-12-28T03:09:05;10;6;
71858;PMS5003;59713;50.866;4.324;2023-12-28T03:10:06;10;6;
71858;PMS5003;59713;50.866;4.324;2023-12-28T03:11:05;10;6;
71858;PMS5003;59713;50.866;4.324;2023-12-28T03:12:06;9;8;
71858;PMS5003;59713;50.866;4.324;2023-12-28T03:13:05;9;8;
71858;PMS5003;59713;50.866;4.324;2023-12-28T03:14:05;9;8;
71858;PMS5003;59713;50.866;4.324;2023-12-28T03:15:05;7;5;
71858;PMS5003;59713;50.866;4.324;2023-12-28T03:15:05;7;5;
71858;PMS5003;59713;50.866;4.324;2023-12-28T03:16:05;7;5;
71858;PMS5003;59713;50.866;4.324;2023-12-28T03:17:05;7;5;
71858;PMS5003;59713;50.866;4.324;2023-12-28T03:18:05;3;3;
71858;PMS5003;59713;50.866;4.324;2023-12-28T03:19:05;3;3;
71858;PMS5003;59713;50.866;4.324;2023-12-28T03:20:05;3;3;
71858;PMS5003;59713;50.866;4.324;2023-12-28T03:21:05;5;5;
71858;PMS5003;59713;50.866;4.324;2023-12-28T03:22:05;5;5;
71858;PMS5003;59713;50.866;4.324;2023-12-28T03:23:05;5;5;
71858;PMS5003;59713;50.866;4.324;2023-12-28T03:24:05;7;5;
71858;PMS5003;59713;50.866;4.324;2023-12-28T03:25:05;7;5;
71858;PMS5003;59713;50.866;4.324;2023-12-28T03:25:05;7;5;
71858;PMS5003;59713;50.866;4.324;2023-12-28T03:26:05;7;5;
71858;PMS5003;59713;50.866;4.324;2023-12-28T03:27:05;10;5;
71858;PMS5003;59713;50.866;4.324;2023-12-28T03:28:05;10;5;
71858;PMS5003;59713;50.866;4.324;2023-12-28T03:29:05;10;5;
71858;PMS5003;59713;50.866;4.324;2023-12-28T03:30:06;4;4;
71858;PMS5003;59713;50.866;4.324;2023-12-28T03:31:05;4;4;
71858;PMS5003;59713;50.866;4.324;2023-12-28T03:32:05;4;4;
71858;PMS5003;59713;50.866;4.324;2023-12-28T03:33:05;8;5;
71858;PMS5003;59713;50.866;4.324;2023-12-28T03:34:05;8;5;
71858;PMS5003;59713;50.866;4.324;2023-12-28T03:34:06;8;5;
71858;PMS5003;59713;50.866;4.324;2023-12-28T03:35:05;8;5;
71858;PMS5003;59713;50.866;4.324;2023-12-28T03:36:05;5;4;
71858;PMS5003;59713;50.866;4.324;2023-12-28T03:37:05;5;4;
71858;PMS5003;59713;50.866;4.324;2023-12-28T03:38:05;5;4;
71858;PMS5003;59713;50.866;4.324;2023-12-28T03:39:05;8;6;
71858;PMS5003;59713;50.866;4.324;2023-12-28T03:40:07;8;6;
71858;PMS5003;59713;50.866;4.324;2023-12-28T03:41:05;8;6;
71858;PMS5003;59713;50.866;4.324;2023-12-28T03:42:05;8;6;
71858;PMS5003;59713;50.866;4.324;2023-12-28T03:43:05;8;6;
71858;PMS5003;59713;50.866;4.324;2023-12-28T03:43:05;8;6;
71858;PMS5003;59713;50.866;4.324;2023-12-28T03:44:05;8;6;
71858;PMS5003;59713;50.866;4.324;2023-12-28T03:45:05;3;3;
71858;PMS5003;59713;50.866;4.324;2023-12-28T03:46:05;3;3;
71858;PMS5003;59713;50.866;4.324;2023-12-28T03:47:05;3;3;
71858;PMS5003;59713;50.866;4.324;2023-12-28T03:48:05;4;3;
71858;PMS5003;59713;50.866;4.324;2023-12-28T03:49:05;4;3;
71858;PMS5003;59713;50.866;4.324;2023-12-28T03:50:05;4;3;
71858;PMS5003;59713;50.866;4.324;2023-12-28T03:51:05;3;3;
71858;PMS5003;59713;50.866;4.324;2023-12-28T03:52:05;3;3;
71858;PMS5003;59713;50.866;4.324;2023-12-28T03:53:05;3;3;
71858;PMS5003;59713;50.866;4.324;2023-12-28T03:53:05;3;3;
71858;PMS5003;59713;50.866;4.324;2023-12-28T03:54:05;3;3;
71858;PMS5003;59713;50.866;4.324;2023-12-28T03:55:05;3;3;
71858;PMS5003;59713;50.866;4.324;2023-12-28T03:56:05;3;3;
71858;PMS5003;59713;50.866;4.324;2023-12-28T03:57:05;5;2;
71858;PMS5003;59713;50.866;4.324;2023-12-28T03:58:05;5;2;
71858;PMS5003;59713;50.866;4.324;2023-12-28T03:59:05;5;2;
71858;PMS5003;59713;50.866;4.324;2023-12-28T04:00:06;4;4;
71858;PMS5003;59713;50.866;4.324;2023-12-28T04:01:05;4;4;
71858;PMS5003;59713;50.866;4.324;2023-12-28T04:02:05;4;4;
71858;PMS5003;59713;50.866;4.324;2023-12-28T04:02:05;4;4;
71858;PMS5003;59713;50.866;4.324;2023-12-28T04:03:05;6;5;
71858;PMS5003;59713;50.866;4.324;2023-12-28T04:04:05;6;5;
71858;PMS5003;59713;50.866;4.324;2023-12-28T04:05:05;6;5;
71858;PMS5003;59713;50.866;4.324;2023-12-28T04:06:05;7;5;
71858;PMS5003;59713;50.866;4.324;2023-12-28T04:07:05;7;5;
71858;PMS5003;59713;50.866;4.324;2023-12-28T04:08:05;7;5;
71858;PMS5003;59713;50.866;4.324;2023-12-28T04:09:05;6;3;
71858;PMS5003;59713;50.866;4.324;2023-12-28T04:10:05;6;3;
71858;PMS5003;59713;50.866;4.324;2023-12-28T04:11:05;6;3;
71858;PMS5003;59713;50.866;4.324;2023-12-28T04:11:05;6;3;
71858;PMS5003;59713;50.866;4.324;2023-12-28T04:12:05;5;5;
71858;PMS5003;59713;50.866;4.324;2023-12-28T04:13:05;5;5;
71858;PMS5003;59713;50.866;4.324;2023-12-28T04:14:06;5;5;
71858;PMS5003;59713;50.866;4.324;2023-12-28T04:15:05;6;2;
71858;PMS5003;59713;50.866;4.324;2023-12-28T04:16:05;6;2;
71858;PMS5003;59713;50.866;4.324;2023-12-28T04:17:05;6;2;
71858;PMS5003;59713;50.866;4.324;2023-12-28T04:18:05;7;4;
71858;PMS5003;59713;50.866;4.324;2023-12-28T04:19:05;7;4;
71858;PMS5003;59713;50.866;4.324;2023-12-28T04:20:06;7;4;
71858;PMS5003;59713;50.866;4.324;2023-12-28T04:20:06;7;4;
71858;PMS5003;59713;50.866;4.324;2023-12-28T04:21:07;4;4;
71858;PMS5003;59713;50.866;4.324;2023-12-28T04:22:05;4;4;
71858;PMS5003;59713;50.866;4.324;2023-12-28T04:23:05;4;4;
71858;PMS5003;59713;50.866;4.324;2023-12-28T04:24:05;10;6;
71858;PMS5003;59713;50.866;4.324;2023-12-28T04:25:05;10;6;
71858;PMS5003;59713;50.866;4.324;2023-12-28T04:26:05;10;6;
71858;PMS5003;59713;50.866;4.324;2023-12-28T04:27:05;8;5;
71858;PMS5003;59713;50.866;4.324;2023-12-28T04:28:05;8;5;
71858;PMS5003;59713;50.866;4.324;2023-12-28T04:29:05;8;5;
71858;PMS5003;59713;50.866;4.324;2023-12-28T04:30:06;4;3;
71858;PMS5003;59713;50.866;4.324;2023-12-28T04:30:06;4;3;
71858;PMS5003;59713;50.866;4.324;2023-12-28T04:31:05;4;3;
71858;PMS5003;59713;50.866;4.324;2023-12-28T04:32:05;4;3;
71858;PMS5003;59713;50.866;4.324;2023-12-28T04:33:05;4;3;
71858;PMS5003;59713;50.866;4.324;2023-12-28T04:34:05;4;3;
71858;PMS5003;59713;50.866;4.324;2023-12-28T04:35:06;4;3;
71858;PMS5003;59713;50.866;4.324;2023-12-28T04:36:05;6;5;
71858;PMS5003;59713;50.866;4.324;2023-12-28T04:37:05;6;5;
71858;PMS5003;59713;50.866;4.324;2023-12-28T04:38:05;6;5;
71858;PMS5003;59713;50.866;4.324;2023-12-28T04:39:05;7;5;
71858;PMS5003;59713;50.866;4.324;2023-12-28T04:39:05;7;5;
71858;PMS5003;59713;50.866;4.324;2023-12-28T04:40:07;7;5;
71858;PMS5003;59713;50.866;4.324;2023-12-28T04:41:05;7;5;
71858;PMS5003;59713;50.866;4.324;2023-12-28T04:42:05;5;4;
71858;PMS5003;59713;50.866;4.324;2023-12-28T04:43:05;5;4;
71858;PMS5003;59713;50.866;4.324;2023-12-28T04:44:05;5;4;
71858;PMS5003;59713;50.866;4.324;2023-12-28T04:45:06;3;3;
71858;PMS5003;59713;50.866;4.324;2023-12-28T04:46:05;3;3;
71858;PMS5003;59713;50.866;4.324;2023-12-28T04:47:05;3;3;
71858;PMS5003;59713;50.866;4.324;2023-12-28T04:48:05;6;3;
71858;PMS5003;59713;50.866;4.324;2023-12-28T04:49:05;6;3;
71858;PMS5003;59713;50.866;4.324;2023-12-28T04:49:05;6;3;
71858;PMS5003;59713;50.866;4.324;2023-12-28T04:50:06;6;3;
71858;PMS5003;59713;50.866;4.324;2023-12-28T04:51:05;7;3;
71858;PMS5003;59713;50.866;4.324;2023-12-28T04:52:05;7;3;
71858;PMS5003;59713;50.866;4.324;2023-12-28T04:53:05;7;3;
71858;PMS5003;59713;50.866;4.324;2023-12-28T04:54:05;6;3;
71858;PMS5003;59713;50.866;4.324;2023-12-28T04:55:06;6;3;
71858;PMS5003;59713;50.866;4.324;2023-12-28T04:56:06;6;3;
71858;PMS5003;59713;50.866;4.324;2023-12-28T04:57:05;3;3;
71858;PMS5003;59713;50.866;4.324;2023-12-28T04:58:05;3;3;
71858;PMS5003;59713;50.866;4.324;2023-12-28T04:58:05;3;3;
71858;PMS5003;59713;50.866;4.324;2023-12-28T04:59:06;3;3;
71858;PMS5003;59713;50.866;4.324;2023-12-28T05:00:06;10;6;
71858;PMS5003;59713;50.866;4.324;2023-12-28T05:01:05;10;6;
71858;PMS5003;59713;50.866;4.324;2023-12-28T05:02:05;10;6;
71858;PMS5003;59713;50.866;4.324;2023-12-28T05:03:05;4;3;
71858;PMS5003;59713;50.866;4.324;2023-12-28T05:04:05;4;3;
71858;PMS5003;59713;50.866;4.324;2023-12-28T05:05:05;4;3;
71858;PMS5003;59713;50.866;4.324;2023-12-28T05:06:05;8;3;
71858;PMS5003;59713;50.866;4.324;2023-12-28T05:07:05;8;3;
71858;PMS5003;59713;50.866;4.324;2023-12-28T05:07:05;8;3;
71858;PMS5003;59713;50.866;4.324;2023-12-28T05:08:05;8;3;
71858;PMS5003;59713;50.866;4.324;2023-12-28T05:09:05;3;2;
71858;PMS5003;59713;50.866;4.324;2023-12-28T05:10:05;3;2;
71858;PMS5003;59713;50.866;4.324;2023-12-28T05:11:05;3;2;
71858;PMS5003;59713;50.866;4.324;2023-12-28T05:12:05;6;4;
71858;PMS5003;59713;50.866;4.324;2023-12-28T05:13:05;6;4;
71858;PMS5003;59713;50.866;4.324;2023-12-28T05:14:05;6;4;
71858;PMS5003;59713;50.866;4.324;2023-12-28T05:15:05;2;2;
71858;PMS5003;59713;50.866;4.324;2023-12-28T05:16:05;2;2;
71858;PMS5003;59713;50.866;4.324;2023-12-28T05:16:05;2;2;
71858;PMS5003;59713;50.866;4.324;2023-12-28T05:17:05;2;2;
71858;PMS5003;59713;50.866;4.324;2023-12-28T05:18:06;10;5;
71858;PMS5003;59713;50.866;4.324;2023-12-28T05:19:05;10;5;
71858;PMS5003;59713;50.866;4.324;2023-12-28T05:20:06;10;5;
71858;PMS5003;59713;50.866;4.324;2023-12-28T05:21:05;6;2;
71858;PMS5003;59713;50.866;4.324;2023-12-28T05:22:05;6;2;
71858;PMS5003;59713;50.866;4.324;2023-12-28T05:23:05;6;2;
71858;PMS5003;59713;50.866;4.324;2023-12-28T05:24:05;5;5;
71858;PMS5003;59713;50.866;4.324;2023-12-28T05:25:05;5;5;
71858;PMS5003;59713;50.866;4.324;2023-12-28T05:25:05;5;5;
71858;PMS5003;59713;50.866;4.324;2023-12-28T05:26:05;5;5;
71858;PMS5003;59713;50.866;4.324;2023-12-28T05:27:05;4;4;
71858;PMS5003;59713;50.866;4.324;2023-12-28T05:28:05;4;4;
71858;PMS5003;59713;50.866;4.324;2023-12-28T05:29:05;4;4;
71858;PMS5003;59713;50.866;4.324;2023-12-28T05:30:06;5;3;
71858;PMS5003;59713;50.866;4.324;2023-12-28T05:31:05;5;3;
71858;PMS5003;59713;50.866;4.324;2023-12-28T05:32:05;5;3;
71858;PMS5003;59713;50.866;4.324;2023-12-28T05:33:05;5;3;
71858;PMS5003;59713;50.866;4.324;2023-12-28T05:34:05;5;3;
71858;PMS5003;59713;50.866;4.324;2023-12-28T05:35:06;5;3;
71858;PMS5003;59713;50.866;4.324;2023-12-28T05:35:06;5;3;
71858;PMS5003;59713;50.866;4.324;2023-12-28T05:36:05;4;2;
71858;PMS5003;59713;50.866;4.324;2023-12-28T05:37:05;4;2;
71858;PMS5003;59713;50.866;4.324;2023-12-28T05:38:05;4;2;
71858;PMS5003;59713;50.866;4.324;2023-12-28T05:39:05;3;3;
71858;PMS5003;59713;50.866;4.324;2023-12-28T05:40:06;3;3;
71858;PMS5003;59713;50.866;4.324;2023-12-28T05:41:05;3;3;
71858;PMS5003;59713;50.866;4.324;2023-12-28T05:42:05;4;2;
71858;PMS5003;59713;50.866;4.324;2023-12-28T05:43:05;4;2;
71858;PMS5003;59713;50.866;4.324;2023-12-28T05:44:05;4;2;
71858;PMS5003;59713;50.866;4.324;2023-12-28T05:44:05;4;2;
71858;PMS5003;59713;50.866;4.324;2023-12-28T05:45:07;8;5;
71858;PMS5003;59713;50.866;4.324;2023-12-28T05:46:05;8;5;
71858;PMS5003;59713;50.866;4.324;2023-12-28T05:47:05;8;5;
71858;PMS5003;59713;50.866;4.324;2023-12-28T05:48:05;7;4;
71858;PMS5003;59713;50.866;4.324;2023-12-28T05:49:05;7;4;
71858;PMS5003;59713;50.866;4.324;2023-12-28T05:50:05;7;4;
71858;PMS5003;59713;50.866;4.324;2023-12-28T05:51:05;4;3;
71858;PMS5003;59713;50.866;4.324;2023-12-28T05:52:05;4;3;
71858;PMS5003;59713;50.866;4.324;2023-12-28T05:53:05;4;3;
71858;PMS5003;59713;50.866;4.324;2023-12-28T05:53:05;4;3;
71858;PMS5003;59713;50.866;4.324;2023-12-28T05:54:05;4;4;
71858;PMS5003;59713;50.866;4.324;2023-12-28T05:55:05;4;4;
71858;PMS5003;59713;50.866;4.324;2023-12-28T05:56:05;4;4;
71858;PMS5003;59713;50.866;4.324;2023-12-28T05:57:05;10;3;
71858;PMS5003;59713;50.866;4.324;2023-12-28T05:58:05;10;3;
71858;PMS5003;59713;50.866;4.324;2023-12-28T05:59:07;10;3;
71858;PMS5003;59713;50.866;4.324;2023-12-28T06:00:06;11;7;
71858;PMS5003;59713;50.866;4.324;2023-12-28T06:01:05;11;7;
71858;PMS5003;59713;50.866;4.324;2023-12-28T06:02:05;11;7;
71858;PMS5003;59713;50.866;4.324;2023-12-28T06:02:05;11;7;
71858;PMS5003;59713;50.866;4.324;2023-12-28T06:03:05;7;3;
71858;PMS5003;59713;50.866;4.324;2023-12-28T06:04:05;7;3;
71858;PMS5003;59713;50.866;4.324;2023-12-28T06:05:05;7;3;
71858;PMS5003;59713;50.866;4.324;2023-12-28T06:06:05;5;5;
71858;PMS5003;59713;50.866;4.324;2023-12-28T06:07:05;5;5;
71858;PMS5003;59713;50.866;4.324;2023-12-28T06:08:05;5;5;
71858;PMS5003;59713;50.866;4.324;2023-12-28T06:09:05;1;1;
71858;PMS5003;59713;50.866;4.324;2023-12-28T06:10:06;1;1;
71858;PMS5003;59713;50.866;4.324;2023-12-28T06:11:05;1;1;